Terminal Aerodrome Forecast
Issued by NWS Detroit/Pontiac, MI

Home | Current Version | Previous Version | Text Only | Print | Product List | Glossary On
Versions: 1 2 3 4 5 6 7 8 9 10 11 12 13 14 15 16 17 18 19 20 21 22
682
FTUS43 KDTX 251128
TAFFNT
TAF
KFNT 251128Z 2512/2612 25013G20KT P6SM SCT025 BKN045
      TEMPO 2512/2515 6SM -RASN OVC025
     FM251500 27018G30KT P6SM BKN045
     FM260100 27013G20KT P6SM SCT025 BKN040
     FM261000 23013G20KT P6SM BKN040 OVC150=

USA.gov is the U.S. government's official web portal to all federal, state and local government web resources and services.